createdAt,value
2023-02-09T00:00:09.031Z,24.23
2023-02-09T00:02:44.823Z,27.63
2023-02-09T00:05:15.025Z,22.67
2023-02-09T00:07:44.776Z,20.60
2023-02-09T00:10:13.396Z,22.53
2023-02-09T00:12:59.220Z,23.43
2023-02-09T00:15:27.908Z,22.90
2023-02-09T00:17:57.110Z,24.13
2023-02-09T00:20:27.470Z,24.37
2023-02-09T00:22:56.128Z,24.17
2023-02-09T00:25:24.862Z,21.13
2023-02-09T00:27:53.555Z,23.37
2023-02-09T00:30:22.250Z,22.97
2023-02-09T00:32:51.088Z,22.80
2023-02-09T00:35:20.613Z,19.03
2023-02-09T00:37:50.848Z,21.00
2023-02-09T00:40:19.729Z,22.47
2023-02-09T00:42:48.338Z,26.47
2023-02-09T00:45:18.961Z,26.17
2023-02-09T00:47:47.523Z,25.90
2023-02-09T00:50:16.508Z,23.30
2023-02-09T00:52:45.301Z,23.30
2023-02-09T00:55:15.308Z,23.13
2023-02-09T00:57:44.089Z,22.97
2023-02-09T01:00:14.803Z,21.70
2023-02-09T01:02:43.798Z,20.23
2023-02-09T01:05:12.549Z,25.80
2023-02-09T01:07:41.209Z,20.17
2023-02-09T01:10:10.568Z,23.17
2023-02-09T01:12:42.312Z,22.00
2023-02-09T01:15:12.273Z,21.47
2023-02-09T01:17:41.863Z,25.97
2023-02-09T01:20:15.014Z,23.43
2023-02-09T01:22:43.942Z,25.17
2023-02-09T01:25:12.960Z,25.40
2023-02-09T01:27:43.034Z,23.77
2023-02-09T01:30:12.672Z,23.10
2023-02-09T01:32:41.513Z,21.23
2023-02-09T01:35:10.899Z,24.03
2023-02-09T01:37:40.493Z,18.90
2023-02-09T01:40:11.106Z,21.17
2023-02-09T01:42:44.502Z,24.60
2023-02-09T01:45:26.905Z,22.33
2023-02-09T01:47:59.395Z,24.80
2023-02-09T01:50:30.832Z,24.33
2023-02-09T01:52:59.784Z,25.10
2023-02-09T01:55:33.937Z,23.10
2023-02-09T01:58:09.015Z,25.80
2023-02-09T02:00:37.853Z,22.80
2023-02-09T02:03:10.857Z,21.37
2023-02-09T02:05:43.785Z,21.57
2023-02-09T02:08:18.054Z,22.10
2023-02-09T02:10:47.206Z,21.03
2023-02-09T02:13:17.748Z,21.67
2023-02-09T02:15:56.696Z,21.23
2023-02-09T02:18:39.190Z,23.13
2023-02-09T02:21:52.593Z,22.60
2023-02-09T02:24:41.676Z,23.03
2023-02-09T02:27:17.672Z,18.10
2023-02-09T02:30:20.199Z,18.77
2023-02-09T02:33:01.887Z,18.87
2023-02-09T02:35:36.925Z,19.07
2023-02-09T02:38:18.904Z,18.93
2023-02-09T02:40:56.410Z,18.93
2023-02-09T02:43:35.904Z,20.20
2023-02-09T02:46:09.997Z,17.80
2023-02-09T02:48:44.207Z,21.33
2023-02-09T02:51:18.464Z,19.67
2023-02-09T02:53:52.805Z,19.13
2023-02-09T02:56:25.497Z,20.30
2023-02-09T02:58:58.380Z,19.77
2023-02-09T03:01:31.640Z,20.27
2023-02-09T03:04:04.187Z,16.77
2023-02-09T03:06:34.232Z,23.40
2023-02-09T03:09:03.514Z,20.73
2023-02-09T03:11:36.121Z,20.63
2023-02-09T03:14:20.561Z,20.53
2023-02-09T03:16:53.080Z,17.27
2023-02-09T03:19:34.516Z,15.47
2023-02-09T03:22:07.843Z,18.83
2023-02-09T03:24:47.971Z,20.07
2023-02-09T03:27:20.701Z,18.80
2023-02-09T03:29:52.008Z,20.87
2023-02-09T03:32:21.946Z,20.20
2023-02-09T03:34:52.965Z,23.67
2023-02-09T03:37:21.948Z,19.63
2023-02-09T03:39:50.729Z,19.20
2023-02-09T03:42:19.453Z,19.03
2023-02-09T03:44:48.074Z,20.80
2023-02-09T03:47:16.656Z,23.03
2023-02-09T03:49:45.699Z,22.27
2023-02-09T03:52:18.033Z,19.03
2023-02-09T03:54:47.966Z,22.37
2023-02-09T03:57:16.555Z,22.17
2023-02-09T03:59:45.187Z,23.63
2023-02-09T04:02:13.777Z,22.17
2023-02-09T04:04:42.449Z,20.20
2023-02-09T04:07:12.182Z,21.20
2023-02-09T04:09:42.332Z,20.40
2023-02-09T04:12:10.903Z,23.77
2023-02-09T04:14:39.561Z,21.00
2023-02-09T04:17:08.244Z,20.53
2023-02-09T04:19:36.988Z,23.73
2023-02-09T04:22:05.757Z,24.43
2023-02-09T04:24:36.460Z,22.33
2023-02-09T04:27:06.759Z,22.13
2023-02-09T04:29:35.544Z,19.93
2023-02-09T04:32:04.312Z,21.10
2023-02-09T04:34:36.058Z,21.87
2023-02-09T04:37:04.653Z,21.10
2023-02-09T04:39:33.241Z,22.80
2023-02-09T04:42:01.856Z,20.10
2023-02-09T04:44:32.168Z,23.20
2023-02-09T04:47:01.037Z,23.50
2023-02-09T04:49:29.791Z,19.27
2023-02-09T04:52:50.666Z,19.97
2023-02-09T04:55:19.433Z,21.93
2023-02-09T04:58:05.491Z,23.47
2023-02-09T05:00:35.709Z,19.30
2023-02-09T05:03:04.580Z,23.83
2023-02-09T05:06:11.997Z,20.40
2023-02-09T05:08:40.679Z,21.87
2023-02-09T05:11:09.752Z,21.67
2023-02-09T05:13:38.932Z,18.90
2023-02-09T05:16:08.468Z,19.70
2023-02-09T05:18:37.940Z,20.07
2023-02-09T05:21:07.269Z,19.60
2023-02-09T05:23:37.529Z,23.30
2023-02-09T05:26:06.479Z,19.57
2023-02-09T05:28:35.347Z,23.63
2023-02-09T05:31:04.212Z,23.10
2023-02-09T05:33:33.091Z,21.47
2023-02-09T05:36:01.905Z,20.27
2023-02-09T05:38:30.571Z,24.00
2023-02-09T05:41:05.584Z,20.20
2023-02-09T05:43:34.187Z,18.10
2023-02-09T05:46:02.886Z,19.20
2023-02-09T05:49:02.238Z,22.70
2023-02-09T05:51:30.839Z,20.13
2023-02-09T05:53:59.469Z,19.27
2023-02-09T05:56:30.184Z,21.57
2023-02-09T05:58:58.991Z,19.00
2023-02-09T06:01:27.716Z,22.23
2023-02-09T06:03:56.306Z,19.90
2023-02-09T06:06:24.891Z,20.83
2023-02-09T06:08:53.678Z,20.33
2023-02-09T06:11:22.338Z,18.90
2023-02-09T06:13:52.993Z,21.90
2023-02-09T06:16:21.649Z,21.57
2023-02-09T06:18:50.456Z,18.40
2023-02-09T06:21:19.424Z,16.03
2023-02-09T06:23:48.246Z,20.37
2023-02-09T06:26:19.066Z,21.07
2023-02-09T06:28:48.013Z,21.03
2023-02-09T06:31:18.446Z,19.60
2023-02-09T06:33:47.186Z,22.40
2023-02-09T06:36:15.949Z,58.17
2023-02-09T06:38:44.662Z,26.37
2023-02-09T06:41:13.598Z,24.07
2023-02-09T06:43:42.421Z,35.27
2023-02-09T06:46:13.328Z,22.70
2023-02-09T06:48:43.618Z,19.97
2023-02-09T06:51:13.989Z,19.60
2023-02-09T06:53:58.889Z,22.63
2023-02-09T06:56:28.156Z,22.33
2023-02-09T06:58:57.398Z,22.87
2023-02-09T07:01:26.075Z,21.97
2023-02-09T07:03:56.410Z,19.97
2023-02-09T07:06:25.537Z,23.00
2023-02-09T07:08:54.396Z,21.07
2023-02-09T07:11:23.298Z,23.57
2023-02-09T07:13:52.057Z,22.50
2023-02-09T07:16:21.044Z,23.90
2023-02-09T07:18:49.859Z,23.40
2023-02-09T07:21:21.585Z,21.63
2023-02-09T07:23:52.933Z,24.17
2023-02-09T07:26:21.735Z,20.47
2023-02-09T07:28:50.479Z,21.07
2023-02-09T07:31:19.921Z,23.87
2023-02-09T07:33:48.865Z,20.63
2023-02-09T07:36:20.116Z,25.83
2023-02-09T07:38:49.293Z,28.13
2023-02-09T07:41:20.812Z,26.67
2023-02-09T07:43:50.098Z,26.93
2023-02-09T07:46:21.279Z,28.17
2023-02-09T07:48:51.937Z,25.27
2023-02-09T07:51:25.571Z,26.43
2023-02-09T07:53:54.792Z,25.60
2023-02-09T07:56:24.117Z,25.37
2023-02-09T07:58:53.661Z,25.70
2023-02-09T08:01:23.371Z,24.43
2023-02-09T08:03:52.685Z,22.07
2023-02-09T08:06:40.977Z,26.07
2023-02-09T08:09:11.939Z,26.60
2023-02-09T08:11:46.040Z,22.17
2023-02-09T08:14:19.694Z,23.10
2023-02-09T08:16:50.003Z,25.43
2023-02-09T08:19:23.473Z,24.80
2023-02-09T08:21:54.125Z,25.17
2023-02-09T08:24:23.414Z,23.73
2023-02-09T08:26:52.286Z,21.93
2023-02-09T08:29:21.384Z,22.07
2023-02-09T08:31:50.336Z,22.63
2023-02-09T08:34:19.302Z,24.13
2023-02-09T08:36:48.135Z,23.13
2023-02-09T08:39:18.280Z,22.97
2023-02-09T08:41:47.051Z,21.10
2023-02-09T08:44:17.724Z,23.03
2023-02-09T08:46:46.721Z,18.73
2023-02-09T08:49:16.878Z,21.10
2023-02-09T08:51:45.824Z,21.13
2023-02-09T08:54:14.717Z,20.63
2023-02-09T08:56:45.000Z,17.93
2023-02-09T08:59:14.620Z,16.67
2023-02-09T09:01:44.221Z,19.13
2023-02-09T09:04:14.366Z,19.87
2023-02-09T09:06:43.995Z,17.80
2023-02-09T09:09:13.263Z,16.30
2023-02-09T09:11:45.726Z,18.43
2023-02-09T09:14:20.664Z,14.40
2023-02-09T09:16:53.011Z,15.07
2023-02-09T09:19:23.356Z,16.27
2023-02-09T09:21:52.611Z,13.37
2023-02-09T09:24:23.568Z,14.07
2023-02-09T09:26:52.925Z,12.63
2023-02-09T09:29:27.263Z,29.90
2023-02-09T09:31:59.444Z,12.73
2023-02-09T09:34:32.851Z,13.83
2023-02-09T09:37:07.158Z,13.53
2023-02-09T09:39:36.431Z,13.27
2023-02-09T09:42:06.520Z,16.13
2023-02-09T09:44:45.604Z,14.07
2023-02-09T09:47:21.948Z,13.00
2023-02-09T09:49:51.491Z,11.30
2023-02-09T09:52:27.287Z,18.90
2023-02-09T09:54:56.446Z,17.57
2023-02-09T09:57:29.045Z,18.70
2023-02-09T10:00:03.671Z,15.37
2023-02-09T10:02:34.927Z,15.80
2023-02-09T10:05:12.919Z,15.30
2023-02-09T10:07:45.834Z,17.57
2023-02-09T10:10:38.346Z,15.50
2023-02-09T10:13:16.245Z,15.00
2023-02-09T10:15:49.517Z,18.10
2023-02-09T10:18:21.413Z,22.97
2023-02-09T10:20:52.070Z,18.03
2023-02-09T10:23:25.177Z,15.00
2023-02-09T10:26:01.034Z,18.63
2023-02-09T10:28:32.572Z,16.60
2023-02-09T10:31:04.660Z,15.40
2023-02-09T10:33:43.078Z,12.70
2023-02-09T10:36:28.106Z,16.10
2023-02-09T10:39:30.235Z,14.87
2023-02-09T10:42:29.675Z,18.60
2023-02-09T10:45:08.377Z,12.33
2023-02-09T10:47:42.278Z,21.53
2023-02-09T10:50:19.529Z,20.93
2023-02-09T10:53:00.748Z,15.90
2023-02-09T10:55:36.104Z,18.97
2023-02-09T10:58:16.370Z,16.63
2023-02-09T11:00:51.224Z,24.13
2023-02-09T11:03:28.792Z,21.00
2023-02-09T11:06:03.326Z,37.80
2023-02-09T11:08:56.337Z,18.17
2023-02-09T11:11:33.318Z,17.93
2023-02-09T11:14:03.037Z,19.27
2023-02-09T11:16:57.879Z,24.97
2023-02-09T11:19:55.399Z,17.43
2023-02-09T11:22:38.825Z,20.13
2023-02-09T11:25:19.587Z,19.53
2023-02-09T11:27:59.242Z,19.07
2023-02-09T11:30:41.160Z,23.27
2023-02-09T11:33:17.828Z,21.27
2023-02-09T11:35:55.799Z,20.20
2023-02-09T11:38:34.840Z,20.97
2023-02-09T11:41:27.146Z,23.47
2023-02-09T11:45:15.680Z,26.23
2023-02-09T11:47:51.963Z,31.60
2023-02-09T11:50:28.084Z,24.73
2023-02-09T11:53:01.158Z,22.20
2023-02-09T11:55:33.325Z,19.20
2023-02-09T11:58:16.773Z,23.03
2023-02-09T12:01:01.693Z,26.20
2023-02-09T12:03:35.692Z,32.03
2023-02-09T12:06:04.914Z,23.87
2023-02-09T12:08:51.670Z,24.97
2023-02-09T12:11:46.539Z,33.27
2023-02-09T12:14:53.998Z,26.47
2023-02-09T12:17:27.548Z,23.63
2023-02-09T12:20:00.312Z,31.47
2023-02-09T12:22:54.103Z,23.87
2023-02-09T12:25:37.489Z,22.40
2023-02-09T12:28:17.320Z,23.93
2023-02-09T12:31:04.208Z,24.97
2023-02-09T12:33:34.989Z,28.27
2023-02-09T12:36:07.235Z,22.60
2023-02-09T12:39:05.078Z,28.60
2023-02-09T12:42:13.595Z,25.83
2023-02-09T12:44:56.739Z,22.60
2023-02-09T12:47:43.410Z,23.63
2023-02-09T12:50:28.098Z,25.20
2023-02-09T12:53:30.386Z,23.60
2023-02-09T12:56:01.580Z,23.80
2023-02-09T12:58:53.754Z,24.13
2023-02-09T13:01:43.933Z,20.10
2023-02-09T13:04:15.313Z,23.43
2023-02-09T13:06:49.102Z,24.17
2023-02-09T13:09:28.351Z,21.27
2023-02-09T13:12:03.833Z,29.00
2023-02-09T13:14:32.565Z,22.83
2023-02-09T13:17:32.581Z,20.30
2023-02-09T13:20:13.745Z,21.97
2023-02-09T13:22:58.721Z,21.27
2023-02-09T13:25:33.147Z,24.17
2023-02-09T13:28:11.279Z,23.80
2023-02-09T13:30:40.148Z,20.27
2023-02-09T13:33:37.160Z,21.63
2023-02-09T13:36:24.650Z,22.00
2023-02-09T13:38:54.765Z,28.90
2023-02-09T13:41:31.062Z,23.77
2023-02-09T13:44:00.136Z,30.03
2023-02-09T13:46:35.225Z,23.60
2023-02-09T13:49:22.155Z,21.40
2023-02-09T13:52:09.500Z,19.43
2023-02-09T13:54:38.658Z,22.63
2023-02-09T13:57:14.572Z,24.97
2023-02-09T13:59:44.716Z,45.00
2023-02-09T14:02:20.939Z,39.30
2023-02-09T14:04:57.364Z,22.97
2023-02-09T14:07:30.424Z,21.50
2023-02-09T14:10:04.271Z,27.43
2023-02-09T14:12:55.932Z,26.93
2023-02-09T14:15:49.676Z,22.33
2023-02-09T14:18:31.989Z,22.40
2023-02-09T14:21:17.043Z,32.50
2023-02-09T14:23:47.740Z,21.03
2023-02-09T14:26:23.925Z,23.77
2023-02-09T14:28:55.603Z,23.97
2023-02-09T14:31:26.175Z,26.57
2023-02-09T14:33:57.114Z,26.80
2023-02-09T14:36:33.594Z,24.30
2023-02-09T14:39:13.072Z,28.73
2023-02-09T14:41:41.827Z,23.37
2023-02-09T14:44:21.553Z,28.10
2023-02-09T14:46:52.051Z,30.80
2023-02-09T14:49:21.575Z,32.93
2023-02-09T14:51:56.889Z,35.03
2023-02-09T14:54:27.906Z,32.50
2023-02-09T14:56:58.840Z,34.70
2023-02-09T14:59:28.292Z,32.47
2023-02-09T15:01:57.331Z,29.63
2023-02-09T15:04:26.306Z,26.23
2023-02-09T15:07:03.503Z,28.07
2023-02-09T15:09:38.171Z,26.53
2023-02-09T15:12:08.644Z,31.10
2023-02-09T15:14:42.558Z,34.87
2023-02-09T15:17:17.364Z,36.50
2023-02-09T15:19:46.990Z,27.07
2023-02-09T15:22:18.572Z,27.33
2023-02-09T15:24:49.658Z,30.37
2023-02-09T15:27:26.933Z,36.47
2023-02-09T15:29:59.705Z,29.70
2023-02-09T15:32:29.897Z,30.63
2023-02-09T15:34:58.892Z,35.33
2023-02-09T15:37:34.337Z,27.90
2023-02-09T15:40:05.771Z,29.97
2023-02-09T15:42:52.617Z,26.87
2023-02-09T15:45:40.652Z,29.50
2023-02-09T15:48:10.432Z,30.00
2023-02-09T15:50:42.136Z,34.50
2023-02-09T15:53:15.414Z,31.10
2023-02-09T15:55:45.933Z,34.47
2023-02-09T15:58:16.497Z,28.40
2023-02-09T16:00:45.437Z,27.73
2023-02-09T16:03:20.387Z,29.83
2023-02-09T16:05:52.019Z,30.23
2023-02-09T16:08:24.887Z,29.07
2023-02-09T16:10:54.277Z,28.23
2023-02-09T16:13:23.548Z,26.53
2023-02-09T16:15:52.492Z,26.73
2023-02-09T16:18:21.198Z,30.47
2023-02-09T16:20:53.456Z,32.23
2023-02-09T16:23:24.969Z,28.57
2023-02-09T16:25:55.028Z,38.23
2023-02-09T16:28:23.845Z,31.77
2023-02-09T16:30:54.500Z,37.53
2023-02-09T16:33:24.933Z,31.83
2023-02-09T16:35:56.477Z,34.10
2023-02-09T16:38:31.301Z,33.40
2023-02-09T16:41:00.113Z,33.87
2023-02-09T16:43:29.195Z,34.60
2023-02-09T16:46:03.570Z,34.03
2023-02-09T16:48:35.945Z,40.77
2023-02-09T16:51:04.876Z,40.03
2023-02-09T16:53:40.819Z,39.33
2023-02-09T16:56:13.011Z,40.73
2023-02-09T16:58:41.776Z,41.77
2023-02-09T17:01:17.078Z,35.90
2023-02-09T17:03:49.055Z,35.57
2023-02-09T17:06:20.286Z,38.50
2023-02-09T17:08:51.613Z,33.90
2023-02-09T17:11:22.830Z,49.23
2023-02-09T17:13:51.952Z,42.90
2023-02-09T17:16:22.791Z,42.40
2023-02-09T17:18:54.339Z,46.93
2023-02-09T17:21:24.950Z,44.43
2023-02-09T17:23:57.501Z,36.13
2023-02-09T17:26:26.583Z,43.07
2023-02-09T17:28:55.412Z,39.93
2023-02-09T17:31:26.237Z,42.30
2023-02-09T17:33:57.272Z,41.40
2023-02-09T17:36:28.629Z,40.20
2023-02-09T17:39:00.519Z,44.30
2023-02-09T17:41:34.043Z,37.40
2023-02-09T17:44:22.357Z,43.33
2023-02-09T17:46:57.696Z,42.70
2023-02-09T17:49:26.592Z,40.90
2023-02-09T17:51:55.499Z,49.53
2023-02-09T17:54:25.892Z,51.97
2023-02-09T17:56:54.696Z,46.17
2023-02-09T17:59:23.942Z,38.73
2023-02-09T18:01:55.325Z,39.70
2023-02-09T18:04:27.410Z,41.07
2023-02-09T18:06:57.847Z,36.13
2023-02-09T18:09:28.128Z,43.90
2023-02-09T18:12:01.646Z,39.40
2023-02-09T18:14:33.116Z,43.00
2023-02-09T18:17:02.431Z,49.57
2023-02-09T18:19:31.528Z,46.33
2023-02-09T18:22:02.017Z,57.17
2023-02-09T18:24:34.333Z,42.70
2023-02-09T18:27:03.292Z,43.10
2023-02-09T18:29:32.252Z,45.63
2023-02-09T18:32:02.486Z,44.33
2023-02-09T18:34:31.598Z,44.53
2023-02-09T18:37:00.399Z,47.30
2023-02-09T18:39:30.833Z,43.47
2023-02-09T18:42:00.991Z,47.17
2023-02-09T18:44:31.477Z,48.47
2023-02-09T18:47:02.157Z,46.57
2023-02-09T18:49:31.060Z,53.37
2023-02-09T18:52:00.944Z,49.93
2023-02-09T18:54:31.341Z,49.33
2023-02-09T18:57:01.677Z,48.17
2023-02-09T18:59:31.356Z,44.23
2023-02-09T19:02:00.929Z,43.67
2023-02-09T19:04:29.685Z,47.77
2023-02-09T19:06:58.442Z,47.60
2023-02-09T19:09:27.152Z,52.43
2023-02-09T19:11:55.915Z,57.07
2023-02-09T19:14:38.244Z,60.30
2023-02-09T19:17:08.278Z,49.20
2023-02-09T19:19:38.257Z,51.83
2023-02-09T19:22:06.948Z,50.03
2023-02-09T19:24:35.635Z,47.50
2023-02-09T19:27:06.804Z,51.33
2023-02-09T19:29:38.836Z,48.20
2023-02-09T19:32:07.503Z,50.07
2023-02-09T19:34:39.949Z,48.03
2023-02-09T19:37:09.739Z,48.00
2023-02-09T19:39:41.207Z,50.83
2023-02-09T19:42:10.517Z,48.70
2023-02-09T19:44:40.734Z,49.03
2023-02-09T19:47:11.399Z,49.13
2023-02-09T19:49:40.199Z,43.33
2023-02-09T19:52:08.955Z,41.70
2023-02-09T19:54:37.588Z,40.30
2023-02-09T20:01:20.717Z,40.63
2023-02-09T20:03:49.699Z,43.87
2023-02-09T20:06:18.594Z,48.27
2023-02-09T20:08:47.393Z,41.10
2023-02-09T20:11:19.611Z,48.67
2023-02-09T20:13:54.825Z,44.70
2023-02-09T20:16:27.536Z,47.40
2023-02-09T20:18:56.891Z,47.33
2023-02-09T20:21:26.198Z,54.67
2023-02-09T20:24:21.362Z,51.23
2023-02-09T20:26:50.180Z,47.77
2023-02-09T20:29:19.604Z,52.33
2023-02-09T20:31:50.324Z,48.80
2023-02-09T20:34:19.441Z,51.93
2023-02-09T20:36:48.968Z,47.70
2023-02-09T20:39:19.136Z,51.97
2023-02-09T20:42:03.457Z,54.77
2023-02-09T20:45:18.254Z,56.93
2023-02-09T20:47:48.420Z,54.53
2023-02-09T20:50:18.067Z,56.53
2023-02-09T20:52:47.068Z,54.90
2023-02-09T20:55:15.819Z,54.70
2023-02-09T20:57:44.642Z,49.63
2023-02-09T21:00:14.187Z,51.27
2023-02-09T21:02:50.211Z,52.37
2023-02-09T21:05:19.023Z,57.33
2023-02-09T21:07:50.519Z,58.43
2023-02-09T21:10:19.314Z,59.07
2023-02-09T21:12:47.913Z,67.93
2023-02-09T21:15:16.755Z,66.37
2023-02-09T21:18:17.805Z,69.53
2023-02-09T21:20:46.985Z,66.47
2023-02-09T21:23:17.224Z,70.13
2023-02-09T21:25:46.084Z,65.57
2023-02-09T21:28:15.242Z,63.00
2023-02-09T21:30:44.958Z,57.10
2023-02-09T21:33:20.649Z,58.17
2023-02-09T21:35:49.440Z,55.53
2023-02-09T21:38:18.421Z,52.50
2023-02-09T21:40:47.487Z,54.03
2023-02-09T21:43:16.304Z,55.43
2023-02-09T21:45:46.530Z,51.83
2023-02-09T21:48:15.237Z,52.80
2023-02-09T21:50:45.300Z,51.53
2023-02-09T21:53:13.810Z,55.33
2023-02-09T21:55:42.402Z,51.37
2023-02-09T21:58:10.988Z,58.40
2023-02-09T22:00:39.677Z,53.67
2023-02-09T22:03:08.235Z,55.23
2023-02-09T22:05:36.869Z,54.43
2023-02-09T22:08:07.049Z,59.43
2023-02-09T22:10:35.778Z,59.10
2023-02-09T22:13:08.564Z,57.73
2023-02-09T22:15:40.954Z,59.07
2023-02-09T22:18:09.658Z,53.97
2023-02-09T22:20:41.176Z,54.63
2023-02-09T22:23:11.828Z,52.90
2023-02-09T22:25:40.404Z,52.00
2023-02-09T22:28:09.017Z,52.00
2023-02-09T22:30:37.701Z,59.10
2023-02-09T22:33:06.317Z,55.37
2023-02-09T22:35:34.987Z,58.00
2023-02-09T22:38:03.665Z,56.37
2023-02-09T22:40:33.906Z,55.53
2023-02-09T22:43:02.569Z,59.77
2023-02-09T22:45:31.355Z,57.00
2023-02-09T22:48:00.027Z,56.97
2023-02-09T22:50:28.880Z,53.53
2023-02-09T22:52:57.612Z,52.97
2023-02-09T22:55:26.391Z,54.53
2023-02-09T22:57:56.510Z,51.77
2023-02-09T23:00:25.382Z,53.73
2023-02-09T23:02:54.932Z,55.53
2023-02-09T23:05:23.728Z,53.03
2023-02-09T23:07:52.490Z,54.97
2023-02-09T23:10:22.686Z,56.03
2023-02-09T23:12:51.424Z,53.37
2023-02-09T23:15:21.599Z,53.57
2023-02-09T23:17:50.272Z,49.90
2023-02-09T23:20:19.287Z,55.70
2023-02-09T23:22:49.158Z,51.87
2023-02-09T23:25:17.778Z,51.30
2023-02-09T23:27:46.476Z,51.30
2023-02-09T23:30:15.438Z,54.77
2023-02-09T23:32:45.770Z,54.57
2023-02-09T23:35:14.598Z,49.73
2023-02-09T23:37:43.291Z,51.03
2023-02-09T23:40:12.870Z,50.77
2023-02-09T23:42:41.414Z,60.23
2023-02-09T23:45:10.837Z,57.40
2023-02-09T23:47:39.558Z,58.67
2023-02-09T23:50:10.070Z,53.63
2023-02-09T23:52:38.686Z,58.03
2023-02-09T23:55:08.304Z,56.60
2023-02-09T23:57:36.881Z,53.53
